Time;durP1;ratioP1;P1;durP2;ratioP2;P2;SDS_P1;SDS_P2;PMS_P1;PMS_P2;Temp;Humidity;BMP_temperature;BMP_pressure;BME280_temperature;BME280_humidity;BME280_pressure;Samples;Min_cycle;Max_cycle;Signal;HPM_P1;HPM_P2
2024/01/11 00:01:03;;;;;;;42.47;21.75;;;-2.70;99.90;;;;;;4974425;28;20045;-71
2024/01/11 00:03:29;;;;;;;46.25;22.15;;;-1.70;99.90;;;;;;4993997;28;20075;-72
2024/01/11 00:05:54;;;;;;;42.97;21.58;;;-2.90;99.90;;;;;;4992863;28;20045;-73
2024/01/11 00:08:20;;;;;;;45.03;22.75;;;-3.00;99.90;;;;;;4999416;28;20042;-76
2024/01/11 00:10:46;;;;;;;43.20;20.75;;;-3.00;99.90;;;;;;5011982;28;20026;-72
2024/01/11 00:13:11;;;;;;;41.20;20.88;;;-3.00;99.90;;;;;;5012080;28;20038;-72
2024/01/11 00:15:37;;;;;;;45.45;21.92;;;-3.10;99.90;;;;;;5004380;28;20053;-72
2024/01/11 00:18:03;;;;;;;44.75;21.95;;;-3.10;99.90;;;;;;5010778;28;20491;-73
2024/01/11 00:20:28;;;;;;;48.17;22.40;;;-3.10;99.90;;;;;;4976058;28;20061;-72
2024/01/11 00:22:54;;;;;;;40.88;22.50;;;-3.10;99.90;;;;;;4989801;28;20620;-72
2024/01/11 00:25:19;;;;;;;45.42;22.67;;;-3.30;99.90;;;;;;5005579;28;20047;-72
2024/01/11 00:27:45;;;;;;;47.85;22.77;;;-3.10;99.90;;;;;;5011287;28;20034;-72
2024/01/11 00:30:10;;;;;;;44.10;21.95;;;-3.10;99.90;;;;;;5007988;28;20030;-71
2024/01/11 00:32:36;;;;;;;44.88;22.48;;;-3.10;99.90;;;;;;4994505;28;20049;-72
2024/01/11 00:35:02;;;;;;;45.15;21.83;;;-3.10;99.90;;;;;;5010413;28;20042;-72
2024/01/11 00:37:27;;;;;;;44.90;21.65;;;-3.10;99.90;;;;;;4987572;28;20057;-72
2024/01/11 00:39:53;;;;;;;43.58;21.52;;;-3.10;99.90;;;;;;4993799;28;20073;-72
2024/01/11 00:42:18;;;;;;;44.85;22.65;;;-3.10;99.90;;;;;;4993865;28;20045;-72
2024/01/11 00:44:45;;;;;;;48.83;22.75;;;-3.10;99.90;;;;;;4993250;28;20041;-72
2024/01/11 00:47:11;;;;;;;43.50;22.33;;;-3.10;99.90;;;;;;4992520;28;20050;-72
2024/01/11 00:49:36;;;;;;;41.42;21.70;;;-3.20;99.90;;;;;;5011368;28;20128;-72
2024/01/11 00:52:02;;;;;;;43.55;21.52;;;-3.10;99.90;;;;;;4990982;28;20057;-72
2024/01/11 00:54:27;;;;;;;47.33;22.70;;;-3.20;99.90;;;;;;4993135;28;20057;-73
2024/01/11 00:56:53;;;;;;;49.63;22.50;;;-3.20;99.90;;;;;;4997588;28;20042;-72
2024/01/11 00:59:18;;;;;;;45.80;22.25;;;-3.20;99.90;;;;;;5003357;28;20049;-72
2024/01/11 01:01:48;;;;;;;45.83;21.45;;;-3.20;99.90;;;;;;4993443;28;20056;-72
2024/01/11 01:04:14;;;;;;;46.45;22.80;;;-3.20;99.90;;;;;;4993372;28;20371;-72
2024/01/11 01:06:41;;;;;;;47.83;23.02;;;-3.10;99.90;;;;;;4975753;28;20044;-73
2024/01/11 01:09:07;;;;;;;52.50;23.52;;;-3.20;99.90;;;;;;4990950;28;20398;-72
2024/01/11 01:11:32;;;;;;;43.42;22.33;;;-3.10;99.90;;;;;;4997873;28;20041;-72
2024/01/11 01:13:58;;;;;;;45.50;22.02;;;-2.10;99.90;;;;;;4988282;28;20549;-72
2024/01/11 01:16:24;;;;;;;48.55;22.33;;;-3.60;99.90;;;;;;5011674;28;20395;-71
2024/01/11 01:18:49;;;;;;;47.80;22.42;;;-3.20;99.90;;;;;;5011184;28;20088;-72
2024/01/11 01:21:15;;;;;;;47.65;21.92;;;-3.20;99.90;;;;;;4993578;28;20045;-71
2024/01/11 01:23:40;;;;;;;47.15;23.00;;;-3.20;99.90;;;;;;5010567;28;20161;-72
2024/01/11 01:26:06;;;;;;;45.30;22.23;;;-3.10;99.90;;;;;;4992113;28;20030;-71
2024/01/11 01:28:32;;;;;;;42.53;21.88;;;-3.00;99.90;;;;;;5008227;28;20030;-71
2024/01/11 01:30:58;;;;;;;41.70;21.52;;;-3.30;99.90;;;;;;4997556;28;20046;-72
2024/01/11 01:33:23;;;;;;;45.90;22.38;;;-3.30;99.90;;;;;;5010398;28;20495;-72
2024/01/11 01:35:49;;;;;;;44.03;21.92;;;-3.30;99.90;;;;;;5007324;28;20501;-72
2024/01/11 01:38:15;;;;;;;47.00;22.33;;;-3.30;99.90;;;;;;5010036;28;20057;-73
2024/01/11 01:40:40;;;;;;;48.63;23.08;;;-3.30;99.90;;;;;;5007367;28;20045;-71
2024/01/11 01:43:10;;;;;;;48.63;22.55;;;-3.30;99.90;;;;;;5013935;28;20049;-71
2024/01/11 01:45:36;;;;;;;43.85;22.15;;;-3.30;99.90;;;;;;5005097;28;20113;-72
2024/01/11 01:48:02;;;;;;;47.33;22.83;;;-3.10;99.90;;;;;;4980142;28;20541;-72
2024/01/11 01:50:28;;;;;;;47.42;22.65;;;-3.00;99.90;;;;;;5014396;28;20038;-72
2024/01/11 01:52:55;;;;;;;44.45;22.35;;;-3.30;99.90;;;;;;5011222;28;20120;-72
2024/01/11 01:55:22;;;;;;;50.35;23.40;;;-3.40;99.90;;;;;;5015524;28;20041;-72
2024/01/11 01:57:49;;;;;;;47.20;22.42;;;-3.40;99.90;;;;;;5012926;28;20042;-72
2024/01/11 02:00:16;;;;;;;46.40;23.23;;;-3.40;99.90;;;;;;4993959;28;20050;-72
2024/01/11 02:02:50;;;;;;;49.78;22.73;;;-3.40;99.90;;;;;;5002956;28;20390;-73
2024/01/11 02:05:17;;;;;;;50.42;24.13;;;-3.50;99.90;;;;;;4994510;28;20046;-73
2024/01/11 02:07:44;;;;;;;44.90;22.70;;;-3.50;99.90;;;;;;4996174;28;20498;-71
2024/01/11 02:10:10;;;;;;;53.83;23.80;;;-3.50;99.90;;;;;;4995313;28;20100;-71
2024/01/11 02:12:37;;;;;;;49.97;23.77;;;-3.60;99.90;;;;;;4990694;28;20492;-72
2024/01/11 02:15:03;;;;;;;50.63;23.45;;;-3.60;99.90;;;;;;4997759;28;20076;-72
2024/01/11 02:17:32;;;;;;;51.22;23.52;;;-3.60;99.90;;;;;;4995172;28;20562;-72
2024/01/11 02:19:58;;;;;;;49.90;22.95;;;-3.70;99.90;;;;;;4993043;28;20038;-73
2024/01/11 02:22:35;;;;;;;47.63;22.65;;;-4.60;99.90;;;;;;5010068;28;20105;-72
2024/01/11 02:25:02;;;;;;;51.40;22.98;;;-3.70;99.90;;;;;;4993001;28;20081;-72
2024/01/11 02:27:27;;;;;;;49.75;22.73;;;-3.70;99.90;;;;;;4988220;28;20046;-72
2024/01/11 02:29:53;;;;;;;47.20;22.25;;;-3.70;99.90;;;;;;4988402;28;20038;-72
2024/01/11 02:32:19;;;;;;;45.88;21.90;;;-3.80;99.90;;;;;;4993310;28;20609;-72
2024/01/11 02:34:44;;;;;;;48.83;21.80;;;-3.80;99.90;;;;;;5010880;28;20153;-72
2024/01/11 02:37:10;;;;;;;50.13;24.30;;;-3.80;99.90;;;;;;4996762;28;20129;-72
2024/01/11 02:39:36;;;;;;;52.13;22.77;;;-3.60;99.90;;;;;;4995320;28;20064;-72
2024/01/11 02:42:02;;;;;;;57.35;23.35;;;-3.40;99.90;;;;;;5013421;28;20049;-72
2024/01/11 02:44:28;;;;;;;49.78;21.30;;;-3.90;99.90;;;;;;4995246;28;20044;-75
2024/01/11 02:46:53;;;;;;;52.10;22.88;;;-3.90;99.90;;;;;;5002388;28;20093;-72
2024/01/11 02:49:19;;;;;;;48.33;22.73;;;-3.90;99.90;;;;;;5010434;28;20498;-72
2024/01/11 02:51:45;;;;;;;47.72;22.17;;;-4.00;99.90;;;;;;5010945;28;20034;-72
2024/01/11 02:54:10;;;;;;;45.08;22.50;;;-3.60;99.90;;;;;;4991123;28;20046;-72
2024/01/11 02:56:36;;;;;;;50.85;22.85;;;-3.60;99.90;;;;;;4994370;28;20399;-72
2024/01/11 02:59:01;;;;;;;49.72;23.65;;;-4.00;99.90;;;;;;4995335;28;20041;-71
2024/01/11 03:01:27;;;;;;;46.90;22.75;;;-4.00;99.90;;;;;;5007128;28;20048;-72
2024/01/11 03:03:54;;;;;;;48.70;22.95;;;-4.00;99.90;;;;;;4989938;28;20100;-71
2024/01/11 03:06:22;;;;;;;48.50;22.58;;;-4.10;99.90;;;;;;5009163;28;20049;-71
2024/01/11 03:08:48;;;;;;;51.08;22.67;;;-4.00;99.90;;;;;;4994751;28;20037;-72
2024/01/11 03:11:14;;;;;;;45.78;21.92;;;-4.10;99.90;;;;;;5002682;28;20116;-72
2024/01/11 03:13:40;;;;;;;48.28;22.33;;;-4.10;99.90;;;;;;5006724;28;20136;-72
2024/01/11 03:16:05;;;;;;;46.58;22.50;;;-4.10;99.90;;;;;;4995127;28;20073;-71
2024/01/11 03:18:31;;;;;;;47.17;21.33;;;-4.20;99.90;;;;;;4988298;28;20037;-72
2024/01/11 03:20:57;;;;;;;49.08;22.40;;;-4.20;99.90;;;;;;4992791;28;20037;-71
2024/01/11 03:23:22;;;;;;;51.00;22.95;;;-4.30;99.90;;;;;;4992114;28;20045;-72
2024/01/11 03:25:48;;;;;;;48.05;21.35;;;-4.30;99.90;;;;;;4987979;28;20046;-72
2024/01/11 03:28:13;;;;;;;45.50;22.02;;;-4.30;99.90;;;;;;5012017;28;20046;-71
2024/01/11 03:30:39;;;;;;;48.58;23.40;;;-4.30;99.90;;;;;;5004488;28;20034;-71
2024/01/11 03:33:05;;;;;;;46.92;22.60;;;-4.20;99.90;;;;;;4994635;28;20034;-71
2024/01/11 03:35:31;;;;;;;49.83;22.60;;;-4.20;99.90;;;;;;4992200;28;20046;-72
2024/01/11 03:37:56;;;;;;;52.92;22.80;;;-4.20;99.90;;;;;;5011062;28;20513;-71
2024/01/11 03:40:22;;;;;;;49.72;22.85;;;-4.00;99.90;;;;;;5012453;28;20073;-73
2024/01/11 03:42:47;;;;;;;45.92;21.63;;;-4.30;99.90;;;;;;5012366;28;20118;-72
2024/01/11 03:45:13;;;;;;;46.15;21.70;;;-4.20;99.90;;;;;;4996154;28;20045;-72
2024/01/11 03:47:38;;;;;;;49.15;22.55;;;-4.30;99.90;;;;;;4990831;28;20030;-72
2024/01/11 03:50:04;;;;;;;52.72;24.67;;;-3.90;99.90;;;;;;4989551;28;20034;-72
2024/01/11 03:52:30;;;;;;;49.40;22.52;;;-4.30;99.90;;;;;;4974170;28;20117;-71
2024/01/11 03:54:56;;;;;;;49.88;22.27;;;-4.30;99.90;;;;;;5006789;28;20125;-71
2024/01/11 03:57:21;;;;;;;50.92;22.58;;;-3.90;99.90;;;;;;4991612;28;20056;-71
2024/01/11 03:59:47;;;;;;;51.75;22.67;;;-4.20;99.90;;;;;;4987422;28;20048;-72
2024/01/11 04:02:12;;;;;;;52.72;23.42;;;-4.30;99.90;;;;;;4993901;28;20038;-71
2024/01/11 04:04:38;;;;;;;49.33;22.23;;;-4.30;99.90;;;;;;5004805;28;20058;-72
2024/01/11 04:07:04;;;;;;;51.75;22.95;;;-4.30;99.90;;;;;;4993891;28;20388;-71
2024/01/11 04:09:29;;;;;;;50.10;23.27;;;-4.30;99.90;;;;;;4992058;28;20034;-71
2024/01/11 04:11:55;;;;;;;48.65;22.63;;;-4.30;99.90;;;;;;4994080;28;20041;-72
2024/01/11 04:14:21;;;;;;;55.03;23.38;;;-4.30;99.90;;;;;;5007994;28;20052;-72
2024/01/11 04:16:46;;;;;;;53.00;23.40;;;-3.80;99.90;;;;;;4992524;28;20151;-71
2024/01/11 04:19:12;;;;;;;49.70;22.70;;;-4.30;99.90;;;;;;4988704;28;20080;-72
2024/01/11 04:21:40;;;;;;;47.58;22.75;;;-3.70;99.90;;;;;;4988137;28;20061;-73
2024/01/11 04:24:07;;;;;;;49.25;21.70;;;-3.90;99.90;;;;;;5010336;28;20034;-72
2024/01/11 04:26:33;;;;;;;50.67;22.25;;;-4.30;99.90;;;;;;4986810;28;20423;-71
2024/01/11 04:28:59;;;;;;;49.13;22.48;;;-4.40;99.90;;;;;;4994255;28;20245;-72
2024/01/11 04:31:28;;;;;;;51.17;22.83;;;-4.40;99.90;;;;;;4977889;28;20038;-72
2024/01/11 04:33:54;;;;;;;51.22;22.90;;;-4.40;99.90;;;;;;4986525;28;20037;-71
2024/01/11 04:36:20;;;;;;;50.85;21.85;;;-4.30;99.90;;;;;;5002934;28;20046;-73
2024/01/11 04:38:45;;;;;;;51.58;22.83;;;-4.40;99.90;;;;;;4999287;28;20176;-72
2024/01/11 04:41:12;;;;;;;51.28;22.77;;;-4.40;99.90;;;;;;5010153;28;20062;-71
2024/01/11 04:43:42;;;;;;;49.67;22.58;;;-2.70;99.90;;;;;;5009355;28;20101;-71
2024/01/11 04:46:21;;;;;;;51.13;22.83;;;-4.50;99.90;;;;;;4993256;28;20063;-71
2024/01/11 04:48:48;;;;;;;50.92;22.45;;;-4.40;99.90;;;;;;4994165;28;20497;-72
2024/01/11 04:51:15;;;;;;;53.47;22.20;;;-4.40;99.90;;;;;;5011247;28;20519;-71
2024/01/11 04:53:42;;;;;;;50.38;22.05;;;-4.40;99.90;;;;;;4997724;28;20038;-71
2024/01/11 04:56:09;;;;;;;51.78;23.00;;;-4.40;99.90;;;;;;4990916;28;20041;-71
2024/01/11 04:58:37;;;;;;;48.90;22.23;;;-4.40;99.90;;;;;;4996713;28;20498;-71
2024/01/11 05:01:03;;;;;;;53.33;23.60;;;-4.30;99.90;;;;;;5007438;28;20030;-72
2024/01/11 05:03:30;;;;;;;53.17;23.23;;;-4.50;99.90;;;;;;5002101;28;20042;-71
2024/01/11 05:05:55;;;;;;;48.70;21.92;;;-4.20;99.90;;;;;;5009827;28;20038;-72
2024/01/11 05:08:21;;;;;;;56.30;23.85;;;-4.40;99.90;;;;;;5011101;28;20064;-72
2024/01/11 05:10:47;;;;;;;53.30;22.55;;;-4.00;99.90;;;;;;4998017;28;20037;-72
2024/01/11 05:13:12;;;;;;;55.45;22.95;;;-4.50;99.90;;;;;;5002745;28;20034;-74
2024/01/11 05:15:38;;;;;;;51.45;22.45;;;-4.50;99.90;;;;;;4996836;28;20107;-72
2024/01/11 05:18:04;;;;;;;49.13;21.60;;;-4.50;99.90;;;;;;5013135;28;20487;-72
2024/01/11 05:20:29;;;;;;;51.45;22.63;;;-5.30;99.90;;;;;;5001436;28;20100;-72
2024/01/11 05:22:55;;;;;;;50.90;22.42;;;-4.70;99.90;;;;;;4997275;28;20478;-74
2024/01/11 05:25:20;;;;;;;52.63;23.90;;;-5.60;99.90;;;;;;5007264;28;20038;-72
2024/01/11 05:27:46;;;;;;;54.90;23.00;;;-4.60;99.90;;;;;;5016799;28;20117;-72
2024/01/11 05:30:12;;;;;;;49.35;22.27;;;-4.50;99.90;;;;;;5000050;28;20038;-72
2024/01/11 05:32:38;;;;;;;55.97;23.42;;;-4.50;99.90;;;;;;4990408;28;20033;-72
2024/01/11 05:35:03;;;;;;;60.28;24.38;;;-4.40;99.90;;;;;;5005790;28;20030;-73
2024/01/11 05:37:29;;;;;;;55.65;23.77;;;-4.40;99.90;;;;;;5014484;28;20057;-71
2024/01/11 05:39:56;;;;;;;59.88;23.85;;;-4.40;99.90;;;;;;4986828;28;20041;-73
2024/01/11 05:42:23;;;;;;;50.65;23.27;;;-4.30;99.90;;;;;;5006428;28;20053;-72
2024/01/11 05:44:48;;;;;;;57.92;25.23;;;-4.30;99.90;;;;;;4995896;28;20061;-72
2024/01/11 05:47:14;;;;;;;53.67;24.00;;;-4.30;99.90;;;;;;4997299;28;20037;-72
2024/01/11 05:49:40;;;;;;;53.92;23.52;;;-4.20;99.90;;;;;;5004857;28;20040;-72
2024/01/11 05:52:06;;;;;;;55.38;24.58;;;-3.80;99.90;;;;;;4993410;28;20034;-74
2024/01/11 05:54:31;;;;;;;59.55;23.92;;;-4.30;99.90;;;;;;4990440;28;20110;-72
2024/01/11 05:56:58;;;;;;;57.63;25.15;;;-4.30;99.90;;;;;;5006318;28;20481;-72
2024/01/11 05:59:23;;;;;;;55.30;24.10;;;-4.30;99.90;;;;;;4994144;28;20045;-72
2024/01/11 06:01:49;;;;;;;57.45;24.67;;;-4.30;99.90;;;;;;5013475;28;20091;-72
2024/01/11 06:04:14;;;;;;;58.55;23.90;;;-4.30;99.90;;;;;;5017666;28;20073;-74
2024/01/11 06:06:40;;;;;;;60.15;25.23;;;-4.30;99.90;;;;;;4988693;28;20092;-72
2024/01/11 06:09:06;;;;;;;57.45;24.83;;;-4.40;99.90;;;;;;4980209;28;20026;-73
2024/01/11 06:11:31;;;;;;;57.90;23.25;;;-4.40;99.90;;;;;;4995080;28;20117;-72
2024/01/11 06:13:57;;;;;;;60.20;24.85;;;-4.40;99.90;;;;;;4996522;28;20103;-72
2024/01/11 06:16:23;;;;;;;57.67;24.25;;;-4.40;99.90;;;;;;5006019;28;20499;-72
2024/01/11 06:18:49;;;;;;;56.15;24.08;;;-4.40;99.90;;;;;;5023415;28;20080;-73
2024/01/11 06:21:16;;;;;;;52.08;23.73;;;-4.30;99.90;;;;;;5004188;28;20078;-72
2024/01/11 06:23:43;;;;;;;56.45;23.63;;;-4.30;99.90;;;;;;4992514;28;20044;-72
2024/01/11 06:26:09;;;;;;;54.13;24.38;;;-4.30;99.90;;;;;;5009063;28;20147;-74
2024/01/11 06:28:34;;;;;;;56.50;24.70;;;-4.00;99.90;;;;;;5012945;28;20130;-72
2024/01/11 06:31:00;;;;;;;55.55;24.27;;;-4.10;99.90;;;;;;4996109;28;20104;-72
2024/01/11 06:33:25;;;;;;;59.65;24.73;;;-3.90;99.90;;;;;;5002445;28;20508;-73
2024/01/11 06:35:51;;;;;;;56.75;24.40;;;-4.10;99.90;;;;;;5005383;28;20101;-73
2024/01/11 06:38:16;;;;;;;57.85;24.85;;;-4.00;99.90;;;;;;5004632;28;20069;-72
2024/01/11 06:40:43;;;;;;;57.47;25.00;;;-3.10;99.90;;;;;;4998374;28;20045;-72
2024/01/11 06:43:08;;;;;;;55.28;24.42;;;-3.90;99.90;;;;;;4993071;28;20050;-72
2024/01/11 06:45:34;;;;;;;58.22;25.15;;;-3.90;99.90;;;;;;4996788;28;20041;-72
2024/01/11 06:47:59;;;;;;;60.25;25.17;;;-3.40;99.90;;;;;;5000631;28;20136;-74
2024/01/11 06:50:25;;;;;;;54.88;24.75;;;-3.80;99.90;;;;;;4989769;28;20540;-72
2024/01/11 06:52:50;;;;;;;54.58;24.17;;;-3.70;99.90;;;;;;5001331;28;20486;-72
2024/01/11 06:55:16;;;;;;;57.55;25.35;;;-3.70;99.90;;;;;;5013277;28;20041;-72
2024/01/11 06:57:42;;;;;;;57.00;26.25;;;-3.70;99.90;;;;;;4997604;28;20046;-74
2024/01/11 07:00:08;;;;;;;55.90;25.67;;;-3.60;99.90;;;;;;4993094;28;20052;-73
2024/01/11 07:02:33;;;;;;;58.30;25.05;;;-3.60;99.90;;;;;;4975074;28;20065;-71
2024/01/11 07:04:59;;;;;;;60.60;26.42;;;-3.60;99.90;;;;;;4994091;28;20041;-73
2024/01/11 07:07:26;;;;;;;60.75;25.52;;;-3.50;99.90;;;;;;5009131;28;20038;-71
2024/01/11 07:09:55;;;;;;;58.83;25.50;;;-3.50;99.90;;;;;;5007541;28;20045;-71
2024/01/11 07:12:20;;;;;;;57.53;25.05;;;-3.30;99.90;;;;;;4987981;28;20553;-71
2024/01/11 07:14:46;;;;;;;59.00;26.63;;;-3.20;99.90;;;;;;5006838;28;20045;-73
2024/01/11 07:17:11;;;;;;;61.20;26.27;;;-3.40;99.90;;;;;;4995146;28;20042;-71
2024/01/11 07:19:37;;;;;;;58.55;25.33;;;-3.10;99.90;;;;;;4997722;28;20054;-71
2024/01/11 07:22:03;;;;;;;56.60;26.40;;;-3.90;99.90;;;;;;4995166;28;20129;-71
2024/01/11 07:24:37;;;;;;;58.40;25.20;;;-3.30;99.90;;;;;;5006052;28;20050;-73
2024/01/11 07:27:03;;;;;;;63.35;26.33;;;-3.20;99.90;;;;;;5005263;28;20077;-72
2024/01/11 07:29:29;;;;;;;60.40;26.73;;;-3.20;99.90;;;;;;4983283;28;20038;-73
2024/01/11 07:31:55;;;;;;;61.78;25.95;;;-3.20;99.90;;;;;;4994959;28;20096;-74
2024/01/11 07:34:20;;;;;;;64.50;25.52;;;-3.10;99.90;;;;;;5001286;28;20045;-72
2024/01/11 07:36:46;;;;;;;56.20;24.63;;;-3.10;99.90;;;;;;4995054;28;20053;-72
2024/01/11 07:39:12;;;;;;;65.38;27.33;;;-2.70;99.90;;;;;;5012165;28;20482;-73
2024/01/11 07:41:37;;;;;;;60.58;26.65;;;-2.20;99.90;;;;;;4993773;28;20091;-73
2024/01/11 07:44:03;;;;;;;58.83;26.80;;;-3.10;99.90;;;;;;4995662;28;20064;-74
2024/01/11 07:46:29;;;;;;;59.55;26.83;;;-3.00;99.90;;;;;;4994047;28;20062;-72
2024/01/11 07:48:54;;;;;;;56.45;25.20;;;-3.00;99.90;;;;;;4994009;28;20378;-72
2024/01/11 07:51:20;;;;;;;61.58;27.52;;;-3.00;99.90;;;;;;4996999;28;20052;-72
2024/01/11 07:53:45;;;;;;;66.55;28.40;;;-2.90;99.90;;;;;;4997018;28;20038;-73
2024/01/11 07:56:11;;;;;;;61.28;26.25;;;-2.90;99.90;;;;;;4999379;28;20127;-72
2024/01/11 07:58:37;;;;;;;57.90;26.60;;;-2.90;99.90;;;;;;5001425;28;20411;-75
2024/01/11 08:01:04;;;;;;;55.75;25.63;;;-2.90;99.90;;;;;;5012941;28;20188;-73
2024/01/11 08:03:29;;;;;;;60.40;26.02;;;-2.90;99.90;;;;;;5006869;28;20060;-75
2024/01/11 08:05:55;;;;;;;59.67;26.77;;;-2.80;99.90;;;;;;4997700;28;20117;-75
2024/01/11 08:08:22;;;;;;;59.53;26.77;;;-2.80;99.90;;;;;;4999803;28;20405;-75
2024/01/11 08:10:49;;;;;;;60.25;27.42;;;-2.80;99.90;;;;;;4995481;28;20104;-75
2024/01/11 08:13:15;;;;;;;61.40;26.08;;;-2.70;99.90;;;;;;4994260;28;20495;-75
2024/01/11 08:15:41;;;;;;;57.35;25.92;;;-2.50;99.90;;;;;;5009774;28;20044;-73
2024/01/11 08:18:07;;;;;;;59.55;25.90;;;-2.70;99.90;;;;;;5011532;28;20486;-74
2024/01/11 08:20:32;;;;;;;59.10;27.10;;;-2.50;99.90;;;;;;4993658;28;20038;-73
2024/01/11 08:22:58;;;;;;;58.40;25.27;;;-2.60;99.90;;;;;;4993680;28;20029;-75
2024/01/11 08:25:24;;;;;;;61.65;27.63;;;-2.60;99.90;;;;;;4987249;28;20498;-74
2024/01/11 08:27:49;;;;;;;71.43;32.22;;;-2.10;99.90;;;;;;4994117;28;20034;-74
2024/01/11 08:30:15;;;;;;;66.57;32.03;;;-2.60;99.90;;;;;;4989363;28;20033;-74
2024/01/11 08:32:41;;;;;;;63.25;29.10;;;-2.50;99.90;;;;;;5013185;28;20057;-74
2024/01/11 08:35:09;;;;;;;81.22;35.85;;;-2.50;99.90;;;;;;5010786;28;20041;-74
2024/01/11 08:37:35;;;;;;;80.70;34.90;;;-2.40;99.90;;;;;;4987789;28;20494;-73
2024/01/11 08:40:01;;;;;;;64.65;28.83;;;-2.40;99.90;;;;;;4994826;28;20046;-74
2024/01/11 08:42:27;;;;;;;62.45;27.80;;;-2.40;99.90;;;;;;4988494;28;20062;-73
2024/01/11 08:44:52;;;;;;;64.22;27.65;;;-2.30;99.90;;;;;;5011659;28;20026;-73
2024/01/11 08:47:18;;;;;;;59.90;27.35;;;-2.30;99.90;;;;;;4994233;28;20044;-72
2024/01/11 08:49:44;;;;;;;63.70;26.27;;;-2.30;99.90;;;;;;5010722;28;20391;-75
2024/01/11 08:52:10;;;;;;;59.90;27.30;;;-1.90;99.90;;;;;;5012804;28;20033;-75
2024/01/11 08:54:35;;;;;;;64.85;28.02;;;-2.30;99.90;;;;;;4996327;28;20042;-74
2024/01/11 08:57:01;;;;;;;63.42;26.90;;;-2.20;99.90;;;;;;4997981;28;20444;-73
2024/01/11 08:59:27;;;;;;;62.38;26.75;;;-1.80;99.90;;;;;;4974377;28;20054;-73
2024/01/11 09:01:52;;;;;;;61.78;27.02;;;-2.20;99.90;;;;;;4999033;28;20045;-73
2024/01/11 09:04:18;;;;;;;65.60;28.23;;;-2.10;99.90;;;;;;5011245;28;20449;-73
2024/01/11 09:06:44;;;;;;;63.17;28.85;;;-2.10;99.90;;;;;;4990941;28;20040;-73
2024/01/11 09:09:13;;;;;;;64.05;27.73;;;-2.10;99.90;;;;;;4992019;28;20076;-74
2024/01/11 09:11:40;;;;;;;56.10;25.80;;;-2.00;99.90;;;;;;5007054;28;20088;-73
2024/01/11 09:14:11;;;;;;;59.22;25.70;;;-2.00;99.90;;;;;;4999477;28;20034;-75
2024/01/11 09:16:36;;;;;;;60.90;26.52;;;-3.40;99.90;;;;;;4986290;28;20407;-73
2024/01/11 09:19:02;;;;;;;61.20;27.42;;;-2.00;99.90;;;;;;5012764;28;20030;-74
2024/01/11 09:21:28;;;;;;;60.33;26.73;;;-2.00;99.90;;;;;;4988779;28;20055;-75
2024/01/11 09:23:53;;;;;;;57.90;25.85;;;-1.90;99.90;;;;;;4992153;28;20053;-73
2024/01/11 09:26:19;;;;;;;63.80;27.55;;;-1.90;99.90;;;;;;4989692;28;20045;-73
2024/01/11 09:28:45;;;;;;;66.22;28.38;;;-1.90;99.90;;;;;;4993159;28;20045;-74
2024/01/11 09:31:11;;;;;;;67.80;27.33;;;-1.80;99.90;;;;;;4990202;28;20399;-73
2024/01/11 09:33:38;;;;;;;67.30;28.60;;;-1.80;99.90;;;;;;5010960;28;20041;-73
2024/01/11 09:36:03;;;;;;;65.32;27.38;;;-1.70;99.90;;;;;;4992626;28;20045;-73
2024/01/11 09:38:29;;;;;;;71.32;29.38;;;-1.70;99.90;;;;;;4993709;28;20050;-73
2024/01/11 09:41:07;;;;;;;63.75;28.02;;;-1.70;99.90;;;;;;5002371;28;20037;-75
2024/01/11 09:43:34;;;;;;;63.20;28.15;;;-1.70;99.90;;;;;;4994700;28;20049;-74
2024/01/11 09:46:05;;;;;;;66.40;29.05;;;-1.60;99.90;;;;;;5021454;28;20490;-74
2024/01/11 09:48:35;;;;;;;60.63;28.83;;;-1.60;99.90;;;;;;5016739;28;20556;-73
2024/01/11 09:51:07;;;;;;;65.70;29.25;;;-1.50;99.90;;;;;;4998364;28;20108;-76
2024/01/11 09:53:34;;;;;;;64.93;27.70;;;-1.50;99.90;;;;;;5021328;28;20042;-76
2024/01/11 09:56:07;;;;;;;65.95;28.40;;;-1.50;99.90;;;;;;4976232;28;20034;-75
2024/01/11 09:58:36;;;;;;;62.10;27.98;;;-1.40;99.90;;;;;;4999052;28;20095;-76
2024/01/11 10:01:03;;;;;;;60.22;28.83;;;-1.40;99.90;;;;;;5010637;28;20038;-75
2024/01/11 10:03:29;;;;;;;66.35;28.75;;;-1.40;99.90;;;;;;4990075;28;20073;-75
2024/01/11 10:05:57;;;;;;;69.85;29.40;;;-1.30;99.90;;;;;;5013807;28;20041;-76
2024/01/11 10:08:23;;;;;;;66.35;28.73;;;-1.30;99.90;;;;;;4996673;28;20057;-75
2024/01/11 10:10:49;;;;;;;62.75;27.77;;;-1.30;99.90;;;;;;4999312;28;20426;-77
2024/01/11 10:13:18;;;;;;;67.03;29.23;;;-1.30;99.90;;;;;;4994942;28;20049;-76
2024/01/11 10:15:46;;;;;;;62.83;27.90;;;-1.20;99.90;;;;;;5013684;28;20092;-76
2024/01/11 10:18:12;;;;;;;68.43;27.85;;;-1.00;99.90;;;;;;4996253;28;20037;-77
2024/01/11 10:20:38;;;;;;;65.00;26.73;;;-1.10;99.90;;;;;;4999460;28;20065;-75
2024/01/11 10:23:04;;;;;;;63.60;26.95;;;-1.10;99.90;;;;;;4989291;28;20049;-77
2024/01/11 10:25:29;;;;;;;64.47;28.25;;;-1.10;99.90;;;;;;4996794;28;20038;-75
2024/01/11 10:27:55;;;;;;;71.30;28.70;;;-1.00;99.90;;;;;;5008063;28;20037;-75
2024/01/11 10:30:22;;;;;;;68.97;28.50;;;-0.70;99.90;;;;;;5010113;28;20049;-74
2024/01/11 10:32:49;;;;;;;68.10;28.58;;;-1.00;99.90;;;;;;4999464;28;20042;-79
2024/01/11 10:35:17;;;;;;;72.25;29.75;;;-0.90;99.90;;;;;;5008110;28;20034;-75
2024/01/11 10:37:44;;;;;;;68.22;28.45;;;-0.90;99.90;;;;;;4990202;28;20124;-74
2024/01/11 10:40:12;;;;;;;71.63;28.25;;;-0.90;99.90;;;;;;5008824;28;20083;-76
2024/01/11 10:42:45;;;;;;;74.05;29.98;;;-0.80;99.90;;;;;;4999310;28;20113;-76
2024/01/11 10:45:16;;;;;;;77.20;30.33;;;-0.80;99.90;;;;;;4996603;28;20153;-77
2024/01/11 10:48:05;;;;;;;66.78;29.35;;;0.70;99.90;;;;;;4990215;28;20042;-76
2024/01/11 10:50:35;;;;;;;78.47;30.45;;;-0.70;99.90;;;;;;4993743;28;20038;-75
2024/01/11 10:53:27;;;;;;;83.70;30.13;;;-0.30;99.90;;;;;;5001309;28;20042;-80
2024/01/11 10:55:55;;;;;;;71.60;28.08;;;-0.60;99.90;;;;;;4991740;28;20084;-75
2024/01/11 10:58:22;;;;;;;75.35;29.30;;;-0.60;99.90;;;;;;4991529;28;20038;-75
2024/01/11 11:00:49;;;;;;;70.90;28.38;;;-0.40;99.90;;;;;;4990305;28;20550;-75
2024/01/11 11:03:17;;;;;;;66.35;27.67;;;-0.50;99.90;;;;;;5009606;28;20082;-80
2024/01/11 11:05:44;;;;;;;69.50;28.38;;;-0.50;99.90;;;;;;4994544;28;20442;-75
2024/01/11 11:08:11;;;;;;;68.78;28.80;;;0.60;99.90;;;;;;4991313;28;20081;-75
2024/01/11 11:10:38;;;;;;;68.88;29.33;;;-0.40;99.90;;;;;;4991165;28;20034;-75
2024/01/11 11:13:06;;;;;;;66.68;28.10;;;-0.40;99.90;;;;;;4991496;28;20434;-79
2024/01/11 11:15:33;;;;;;;62.67;26.50;;;-0.30;99.90;;;;;;5006665;28;20069;-76
2024/01/11 11:18:00;;;;;;;61.38;27.00;;;-0.20;99.90;;;;;;5011234;28;20449;-74
2024/01/11 11:20:27;;;;;;;67.50;27.35;;;-0.30;99.90;;;;;;4980353;28;20042;-74
2024/01/11 11:23:06;;;;;;;68.22;27.20;;;-0.20;99.90;;;;;;4979691;28;20042;-76
2024/01/11 11:25:32;;;;;;;62.13;26.95;;;-0.20;99.90;;;;;;4993788;28;20046;-77
2024/01/11 11:28:04;;;;;;;59.80;26.05;;;-0.20;99.90;;;;;;4999104;28;20050;-75
2024/01/11 11:30:36;;;;;;;55.78;25.35;;;-0.10;99.90;;;;;;5004348;28;20124;-74
2024/01/11 11:33:09;;;;;;;55.13;24.33;;;-0.10;99.90;;;;;;5011267;28;20038;-74
2024/01/11 11:35:35;;;;;;;65.85;26.92;;;-0.10;99.90;;;;;;4997738;28;20053;-75
2024/01/11 11:38:02;;;;;;;60.92;26.92;;;0.00;99.90;;;;;;4998852;28;20041;-73
2024/01/11 11:40:39;;;;;;;59.05;25.23;;;0.00;99.90;;;;;;5004588;28;20052;-78
2024/01/11 11:43:08;;;;;;;59.90;25.75;;;0.00;99.90;;;;;;5008369;28;20041;-77
2024/01/11 11:45:35;;;;;;;54.15;23.70;;;0.10;99.90;;;;;;5009143;28;20088;-78
2024/01/11 11:48:01;;;;;;;56.90;24.45;;;0.10;99.90;;;;;;4993655;28;20045;-74
2024/01/11 11:50:30;;;;;;;55.30;24.23;;;0.10;99.90;;;;;;5020217;28;20065;-73
2024/01/11 11:52:57;;;;;;;53.45;24.63;;;0.20;99.90;;;;;;4976305;28;20100;-77
2024/01/11 11:55:26;;;;;;;52.97;23.73;;;0.20;99.90;;;;;;4991107;28;20036;-76
2024/01/11 11:57:53;;;;;;;56.25;24.13;;;-0.90;99.90;;;;;;4991441;28;20033;-75
2024/01/11 12:00:23;;;;;;;52.67;23.90;;;0.30;99.90;;;;;;4997403;28;20208;-78
2024/01/11 12:02:56;;;;;;;53.88;23.92;;;0.30;99.90;;;;;;5005473;28;20475;-74
2024/01/11 12:05:25;;;;;;;54.50;23.35;;;0.50;99.90;;;;;;4990960;28;20073;-74
2024/01/11 12:07:53;;;;;;;55.83;24.23;;;0.40;99.90;;;;;;4995945;28;20034;-77
2024/01/11 12:10:29;;;;;;;57.10;24.80;;;0.40;99.90;;;;;;4993952;28;20053;-75
2024/01/11 12:12:57;;;;;;;53.33;23.98;;;0.50;99.90;;;;;;4991022;28;20410;-80
2024/01/11 12:15:30;;;;;;;58.42;25.10;;;0.50;99.90;;;;;;5002564;28;20077;-75
2024/01/11 12:18:01;;;;;;;51.28;23.35;;;0.50;99.90;;;;;;4974050;28;20030;-74
2024/01/11 12:20:37;;;;;;;54.50;24.38;;;0.50;99.90;;;;;;4994512;28;20050;-79
2024/01/11 12:23:09;;;;;;;53.08;23.60;;;0.50;99.90;;;;;;4988563;28;20038;-75
2024/01/11 12:25:37;;;;;;;54.55;23.52;;;0.60;99.90;;;;;;4972538;28;20732;-78